createdAt,value
2017-12-19T00:02:00.804Z,14.85
2017-12-19T00:04:28.291Z,14.65
2017-12-19T00:06:55.799Z,15.43
2017-12-19T00:09:23.284Z,15.68
2017-12-19T00:11:51.561Z,15.40
2017-12-19T00:14:19.049Z,16.98
2017-12-19T00:16:46.540Z,15.13
2017-12-19T00:19:14.045Z,15.52
2017-12-19T00:21:42.291Z,16.45
2017-12-19T00:24:09.794Z,15.38
2017-12-19T00:26:37.288Z,17.05
2017-12-19T00:29:04.792Z,16.85
2017-12-19T00:31:33.039Z,16.15
2017-12-19T00:34:00.542Z,17.52
2017-12-19T00:36:28.787Z,16.45
2017-12-19T00:38:56.296Z,16.02
2017-12-19T00:41:23.784Z,16.83
2017-12-19T00:43:51.287Z,15.90
2017-12-19T00:46:19.534Z,15.48
2017-12-19T00:48:47.026Z,17.23
2017-12-19T00:51:15.339Z,15.77
2017-12-19T00:53:42.824Z,17.15
2017-12-19T00:56:10.332Z,17.33
2017-12-19T00:58:38.575Z,16.42
2017-12-19T01:01:06.084Z,16.85
2017-12-19T01:03:33.645Z,16.50
2017-12-19T01:06:01.103Z,15.40
2017-12-19T01:08:28.587Z,18.70
2017-12-19T01:10:56.092Z,17.00
2017-12-19T01:13:24.351Z,16.90
2017-12-19T01:15:51.863Z,17.62
2017-12-19T01:18:19.347Z,16.20
2017-12-19T01:20:46.847Z,19.02
2017-12-19T01:23:15.091Z,18.77
2017-12-19T01:25:42.596Z,19.02
2017-12-19T01:28:10.843Z,18.02
2017-12-19T01:30:38.320Z,18.15
2017-12-19T01:33:06.632Z,17.37
2017-12-19T01:35:34.164Z,17.73
2017-12-19T01:38:02.435Z,17.08
2017-12-19T01:40:30.695Z,17.80
2017-12-19T01:42:58.195Z,18.10
2017-12-19T01:45:25.691Z,17.52
2017-12-19T01:47:53.193Z,18.40
2017-12-19T01:50:21.450Z,19.00
2017-12-19T01:52:48.947Z,18.20
2017-12-19T01:55:16.437Z,18.50
2017-12-19T01:57:43.935Z,16.45
2017-12-19T02:00:11.443Z,17.77
2017-12-19T02:02:38.928Z,18.50
2017-12-19T02:05:06.436Z,16.62
2017-12-19T02:07:33.924Z,17.45
2017-12-19T02:10:01.432Z,18.80
2017-12-19T02:12:29.686Z,17.52
2017-12-19T02:14:57.190Z,17.60
2017-12-19T02:17:24.688Z,19.10
2017-12-19T02:19:52.188Z,17.70
2017-12-19T02:22:20.447Z,19.15
2017-12-19T02:24:47.956Z,16.83
2017-12-19T02:27:15.439Z,16.42
2017-12-19T02:29:42.919Z,18.17
2017-12-19T02:32:10.423Z,17.90
2017-12-19T02:34:37.912Z,19.67
2017-12-19T02:37:05.636Z,18.92
2017-12-19T02:39:33.902Z,18.50
2017-12-19T02:42:02.171Z,18.10
2017-12-19T02:44:29.650Z,15.48
2017-12-19T02:46:57.924Z,15.57
2017-12-19T02:49:26.172Z,17.67
2017-12-19T02:51:53.683Z,16.65
2017-12-19T02:54:21.174Z,18.00
2017-12-19T02:56:48.680Z,17.90
2017-12-19T02:59:16.954Z,18.35
2017-12-19T03:01:45.208Z,17.00
2017-12-19T03:04:12.706Z,17.48
2017-12-19T03:06:40.191Z,17.55
2017-12-19T03:09:07.695Z,17.90
2017-12-19T03:11:35.175Z,17.83
2017-12-19T03:14:03.448Z,18.00
2017-12-19T03:16:35.499Z,17.50
2017-12-19T03:19:03.012Z,16.40
2017-12-19T03:21:30.492Z,16.62
2017-12-19T03:23:57.980Z,17.62
2017-12-19T03:26:26.252Z,16.83
2017-12-19T03:28:53.735Z,16.23
2017-12-19T03:31:22.008Z,15.93
2017-12-19T03:33:49.723Z,16.23
2017-12-19T03:36:17.224Z,18.08
2017-12-19T03:38:45.483Z,16.90
2017-12-19T03:41:13.016Z,15.85
2017-12-19T03:43:40.515Z,15.70
2017-12-19T03:46:08.763Z,17.23
2017-12-19T03:48:36.275Z,16.20
2017-12-19T03:51:03.770Z,16.90
2017-12-19T03:53:31.283Z,15.75
2017-12-19T03:55:58.775Z,17.23
2017-12-19T03:58:26.280Z,16.95
2017-12-19T04:00:53.761Z,16.77
2017-12-19T04:03:22.028Z,16.87
2017-12-19T04:05:50.275Z,17.60
2017-12-19T04:08:17.761Z,16.90
2017-12-19T04:10:46.042Z,17.40
2017-12-19T04:13:14.287Z,17.23
2017-12-19T04:15:41.799Z,16.77
2017-12-19T04:18:09.293Z,16.40
2017-12-19T04:20:36.806Z,17.48
2017-12-19T04:23:05.051Z,18.42
2017-12-19T04:25:32.551Z,17.67
2017-12-19T04:28:00.036Z,17.80
2017-12-19T04:30:27.544Z,16.50
2017-12-19T04:32:55.803Z,18.70
2017-12-19T04:35:23.296Z,17.50
2017-12-19T04:37:51.564Z,18.70
2017-12-19T04:40:19.816Z,18.33
2017-12-19T04:42:47.324Z,18.37
2017-12-19T04:45:14.804Z,19.60
2017-12-19T04:47:42.313Z,18.25
2017-12-19T04:50:10.571Z,20.05
2017-12-19T04:52:38.085Z,20.65
2017-12-19T04:55:05.584Z,20.33
2017-12-19T04:57:33.067Z,22.37
2017-12-19T05:00:01.344Z,20.02
2017-12-19T05:02:29.604Z,21.10
2017-12-19T05:04:57.124Z,21.67
2017-12-19T05:07:24.622Z,20.62
2017-12-19T05:09:52.137Z,21.55
2017-12-19T05:12:19.632Z,21.00
2017-12-19T05:14:47.357Z,21.15
2017-12-19T05:17:14.844Z,20.80
2017-12-19T05:19:42.386Z,21.58
2017-12-19T05:22:09.872Z,20.20
2017-12-19T05:24:37.365Z,17.73
2017-12-19T05:27:05.642Z,20.95
2017-12-19T05:29:33.900Z,17.48
2017-12-19T05:32:01.421Z,21.17
2017-12-19T05:34:28.917Z,19.35
2017-12-19T05:36:56.418Z,19.40
2017-12-19T05:39:23.916Z,17.95
2017-12-19T05:41:51.429Z,20.08
2017-12-19T05:44:18.918Z,19.80
2017-12-19T05:46:46.416Z,20.70
2017-12-19T05:49:13.918Z,19.35
2017-12-19T05:51:41.431Z,20.17
2017-12-19T05:54:08.939Z,19.00
2017-12-19T05:56:36.422Z,16.58
2017-12-19T05:59:03.937Z,19.10
2017-12-19T06:01:32.208Z,20.75
2017-12-19T06:04:00.480Z,17.65
2017-12-19T06:06:28.757Z,22.13
2017-12-19T06:08:57.035Z,21.12
2017-12-19T06:11:24.523Z,21.12
2017-12-19T06:13:52.039Z,16.87
2017-12-19T06:16:19.531Z,18.75
2017-12-19T06:18:47.015Z,19.73
2017-12-19T06:21:14.528Z,22.67
2017-12-19T06:23:42.783Z,19.77
2017-12-19T06:26:10.289Z,21.27
2017-12-19T06:28:37.788Z,19.85
2017-12-19T06:31:05.373Z,16.95
2017-12-19T06:33:32.865Z,19.67
2017-12-19T06:36:00.444Z,18.65
2017-12-19T06:38:27.944Z,18.80
2017-12-19T06:40:55.526Z,17.33
2017-12-19T06:43:22.964Z,18.25
2017-12-19T06:45:50.455Z,18.83
2017-12-19T06:48:18.719Z,17.25
2017-12-19T06:50:47.035Z,16.50
2017-12-19T06:53:14.574Z,19.65
2017-12-19T06:55:42.053Z,20.62
2017-12-19T06:58:09.575Z,21.95
2017-12-19T07:00:37.083Z,18.62
2017-12-19T07:03:04.587Z,21.33
2017-12-19T07:05:32.097Z,20.62
2017-12-19T07:07:59.582Z,23.95
2017-12-19T07:10:27.092Z,24.45
2017-12-19T07:12:55.348Z,21.35
2017-12-19T07:15:22.851Z,27.20
2017-12-19T07:17:50.335Z,28.05
2017-12-19T07:20:17.848Z,24.75
2017-12-19T07:22:45.426Z,25.27
2017-12-19T07:25:12.948Z,26.67
2017-12-19T07:27:41.207Z,28.08
2017-12-19T07:30:08.710Z,25.35
2017-12-19T07:32:36.286Z,25.88
2017-12-19T07:35:03.814Z,28.85
2017-12-19T07:37:32.068Z,24.50
2017-12-19T07:39:59.564Z,30.85
2017-12-19T07:42:32.854Z,29.45
2017-12-19T07:45:01.116Z,28.55
2017-12-19T07:47:29.448Z,29.67
2017-12-19T07:49:56.960Z,29.10
2017-12-19T07:52:25.329Z,27.73
2017-12-19T07:54:53.596Z,28.48
2017-12-19T07:57:21.103Z,23.92
2017-12-19T07:59:48.595Z,28.42
2017-12-19T08:02:16.105Z,30.40
2017-12-19T08:04:43.599Z,21.30
2017-12-19T08:07:11.104Z,22.20
2017-12-19T08:09:39.359Z,25.73
2017-12-19T08:12:06.872Z,27.30
2017-12-19T08:14:34.376Z,28.83
2017-12-19T08:17:01.872Z,28.27
2017-12-19T08:19:30.141Z,27.17
2017-12-19T08:21:58.391Z,27.83
2017-12-19T08:24:25.901Z,26.75
2017-12-19T08:26:53.394Z,23.23
2017-12-19T08:29:20.896Z,27.33
2017-12-19T08:31:49.148Z,26.10
2017-12-19T08:34:16.651Z,30.85
2017-12-19T08:36:44.147Z,26.55
2017-12-19T08:39:11.654Z,29.15
2017-12-19T08:41:39.908Z,24.17
2017-12-19T08:44:07.418Z,21.45
2017-12-19T08:46:34.924Z,24.35
2017-12-19T08:49:02.433Z,23.80
2017-12-19T08:51:29.928Z,26.27
2017-12-19T08:53:57.417Z,22.20
2017-12-19T08:56:25.696Z,18.67
2017-12-19T08:58:54.005Z,21.08
2017-12-19T09:01:21.512Z,23.12
2017-12-19T09:03:49.004Z,19.85
2017-12-19T09:06:17.271Z,23.52
2017-12-19T09:08:45.519Z,22.87
2017-12-19T09:11:13.027Z,22.42
2017-12-19T09:13:40.520Z,23.38
2017-12-19T09:16:08.040Z,22.48
2017-12-19T09:18:36.290Z,21.73
2017-12-19T09:21:03.827Z,22.00
2017-12-19T09:23:31.328Z,24.25
2017-12-19T09:25:59.588Z,21.50
2017-12-19T09:28:27.117Z,19.15
2017-12-19T09:30:54.607Z,20.00
2017-12-19T09:33:22.111Z,19.60
2017-12-19T09:35:49.601Z,19.05
2017-12-19T09:38:17.108Z,19.65
2017-12-19T09:40:44.602Z,20.50
2017-12-19T09:43:12.113Z,18.90
2017-12-19T09:45:40.368Z,18.40
2017-12-19T09:48:07.866Z,19.52
2017-12-19T09:50:36.134Z,16.87
2017-12-19T09:53:04.393Z,15.55
2017-12-19T09:55:32.754Z,18.02
2017-12-19T09:58:00.203Z,17.17
2017-12-19T10:00:27.972Z,18.60
2017-12-19T10:02:55.463Z,17.67
2017-12-19T10:05:23.739Z,16.60
2017-12-19T10:07:51.226Z,17.55
2017-12-19T10:10:18.735Z,18.75
2017-12-19T10:12:46.223Z,15.70
2017-12-19T10:15:13.729Z,14.65
2017-12-19T10:17:41.224Z,18.30
2017-12-19T10:20:08.716Z,18.20
2017-12-19T10:22:36.229Z,18.35
2017-12-19T10:25:03.724Z,18.12
2017-12-19T10:27:31.995Z,16.50
2017-12-19T10:30:00.253Z,19.17
2017-12-19T10:32:27.756Z,16.87
2017-12-19T10:34:55.248Z,16.65
2017-12-19T10:37:22.756Z,15.55
2017-12-19T10:39:51.011Z,15.07
2017-12-19T10:42:18.505Z,15.23
2017-12-19T10:44:46.019Z,15.65
2017-12-19T10:47:13.525Z,15.68
2017-12-19T10:49:41.040Z,14.30
2017-12-19T10:52:08.523Z,14.63
2017-12-19T10:54:36.800Z,16.10
2017-12-19T10:57:05.056Z,15.07
2017-12-19T10:59:32.573Z,15.20
2017-12-19T11:02:00.073Z,16.27
2017-12-19T11:04:27.620Z,15.52
2017-12-19T11:06:55.092Z,15.93
2017-12-19T11:09:22.601Z,15.80
2017-12-19T11:11:50.091Z,15.05
2017-12-19T11:14:17.579Z,16.12
2017-12-19T11:16:45.094Z,15.90
2017-12-19T11:19:12.584Z,13.80
2017-12-19T11:21:40.108Z,14.45
2017-12-19T11:24:07.595Z,15.20
2017-12-19T11:26:35.109Z,14.90
2017-12-19T11:29:02.610Z,14.07
2017-12-19T11:31:30.107Z,14.35
2017-12-19T11:33:58.364Z,13.30
2017-12-19T11:36:25.880Z,13.27
2017-12-19T11:38:53.372Z,15.25
2017-12-19T11:41:20.860Z,14.87
2017-12-19T11:43:48.415Z,14.18
2017-12-19T11:46:16.679Z,14.32
2017-12-19T11:48:44.408Z,16.50
2017-12-19T11:51:11.904Z,16.00
2017-12-19T11:53:39.419Z,15.80
2017-12-19T11:56:06.912Z,15.38
2017-12-19T11:58:34.423Z,16.58
2017-12-19T12:01:01.908Z,17.17
2017-12-19T12:03:29.472Z,14.07
2017-12-19T12:05:56.962Z,12.25
2017-12-19T12:08:24.456Z,15.40
2017-12-19T12:10:51.968Z,13.50
2017-12-19T12:13:19.455Z,14.40
2017-12-19T12:15:47.728Z,13.90
2017-12-19T12:18:15.991Z,13.73
2017-12-19T12:20:43.508Z,14.07
2017-12-19T12:23:11.008Z,13.80
2017-12-19T12:25:38.520Z,13.88
2017-12-19T12:28:06.003Z,14.07
2017-12-19T12:30:33.519Z,11.27
2017-12-19T12:33:01.020Z,12.57
2017-12-19T12:35:28.533Z,12.40
2017-12-19T12:37:56.789Z,13.90
2017-12-19T12:40:24.277Z,12.82
2017-12-19T12:42:51.780Z,13.25
2017-12-19T12:45:19.267Z,12.20
2017-12-19T12:47:46.778Z,15.27
2017-12-19T12:50:14.271Z,13.70
2017-12-19T12:52:41.788Z,13.85
2017-12-19T12:55:10.048Z,16.00
2017-12-19T12:57:38.322Z,14.45
2017-12-19T13:00:06.576Z,14.93
2017-12-19T13:02:34.095Z,15.15
2017-12-19T13:05:01.585Z,13.80
2017-12-19T13:07:29.080Z,14.40
2017-12-19T13:09:56.588Z,13.80
2017-12-19T13:12:24.128Z,14.55
2017-12-19T13:14:51.641Z,16.00
2017-12-19T13:17:19.140Z,13.52
2017-12-19T13:19:46.645Z,15.15
2017-12-19T13:22:14.143Z,16.67
2017-12-19T13:24:41.651Z,15.30
2017-12-19T13:27:09.136Z,15.60
2017-12-19T13:29:37.419Z,16.75
2017-12-19T13:32:05.715Z,15.50
2017-12-19T13:34:33.215Z,16.23
2017-12-19T13:37:00.712Z,16.17
2017-12-19T13:39:28.208Z,15.20
2017-12-19T13:41:55.721Z,15.35
2017-12-19T13:44:23.208Z,14.77
2017-12-19T13:46:50.720Z,16.65
2017-12-19T13:49:18.217Z,16.87
2017-12-19T13:51:46.488Z,15.65
2017-12-19T13:54:14.736Z,14.13
2017-12-19T13:56:42.243Z,17.25
2017-12-19T13:59:09.731Z,17.90
2017-12-19T14:01:37.242Z,15.63
2017-12-19T14:04:05.503Z,15.30
2017-12-19T14:06:32.995Z,16.85
2017-12-19T14:09:00.500Z,17.27
2017-12-19T14:11:27.984Z,18.90
2017-12-19T14:13:55.491Z,17.83
2017-12-19T14:16:23.196Z,14.82
2017-12-19T14:18:50.708Z,17.30
2017-12-19T14:21:18.202Z,17.52
2017-12-19T14:23:45.716Z,16.90
2017-12-19T14:26:13.204Z,16.70
2017-12-19T14:28:41.481Z,16.75
2017-12-19T14:31:08.976Z,19.00
2017-12-19T14:33:36.465Z,19.37
2017-12-19T14:36:04.754Z,17.80
2017-12-19T14:38:32.244Z,18.92
2017-12-19T14:40:59.744Z,19.58
2017-12-19T14:43:27.996Z,19.25
2017-12-19T14:45:55.504Z,18.05
2017-12-19T14:48:23.024Z,17.30
2017-12-19T14:50:50.557Z,17.05
2017-12-19T14:53:18.054Z,16.02
2017-12-19T14:55:46.474Z,15.88
2017-12-19T14:58:13.988Z,18.00
2017-12-19T15:00:41.496Z,16.65
2017-12-19T15:03:08.991Z,17.48
2017-12-19T15:05:36.508Z,14.00
2017-12-19T15:08:03.996Z,15.45
2017-12-19T15:10:31.487Z,16.60
2017-12-19T15:12:58.988Z,16.67
2017-12-19T15:15:26.475Z,15.35
2017-12-19T15:17:53.976Z,14.75
2017-12-19T15:20:22.232Z,15.65
2017-12-19T15:22:49.735Z,15.57
2017-12-19T15:25:17.221Z,13.07
2017-12-19T15:27:44.727Z,13.35
2017-12-19T15:30:12.984Z,13.40
2017-12-19T15:32:40.548Z,13.00
2017-12-19T15:35:08.020Z,14.63
2017-12-19T15:37:35.532Z,15.38
2017-12-19T15:40:03.027Z,14.52
2017-12-19T15:42:30.516Z,13.43
2017-12-19T15:44:59.014Z,13.50
2017-12-19T15:47:26.508Z,14.25
2017-12-19T15:49:54.016Z,13.50
2017-12-19T15:52:22.280Z,14.45
2017-12-19T15:54:50.700Z,15.10
2017-12-19T15:57:18.200Z,15.52
2017-12-19T15:59:45.707Z,15.20
2017-12-19T16:02:13.219Z,14.57
2017-12-19T16:04:40.707Z,15.65
2017-12-19T16:07:08.980Z,13.68
2017-12-19T16:09:37.245Z,14.68
2017-12-19T16:12:05.519Z,14.40
2017-12-19T16:14:33.013Z,15.35
2017-12-19T16:17:00.524Z,15.23
2017-12-19T16:19:28.013Z,16.62
2017-12-19T16:21:56.287Z,16.25
2017-12-19T16:24:24.539Z,17.58
2017-12-19T16:26:52.049Z,16.55
2017-12-19T16:29:19.536Z,16.52
2017-12-19T16:31:47.043Z,17.42
2017-12-19T16:34:15.519Z,15.45
2017-12-19T16:36:43.771Z,17.70
2017-12-19T16:39:11.284Z,15.27
2017-12-19T16:41:38.816Z,17.35
2017-12-19T16:44:07.092Z,15.23
2017-12-19T16:46:35.348Z,17.25
2017-12-19T16:49:02.855Z,16.40
2017-12-19T16:51:30.360Z,15.48
2017-12-19T16:53:57.863Z,18.15
2017-12-19T16:56:25.353Z,18.80
2017-12-19T16:58:52.864Z,18.23
2017-12-19T17:01:21.124Z,16.50
2017-12-19T17:03:48.856Z,17.10
2017-12-19T17:06:16.347Z,17.02
2017-12-19T17:08:43.844Z,17.50
2017-12-19T17:11:11.363Z,18.65
2017-12-19T17:13:38.856Z,16.25
2017-12-19T17:16:07.128Z,17.75
2017-12-19T17:18:34.607Z,18.50
2017-12-19T17:21:02.111Z,19.40
2017-12-19T17:23:29.596Z,17.35
2017-12-19T17:25:57.880Z,18.67
2017-12-19T17:28:26.128Z,17.75
2017-12-19T17:30:53.623Z,20.70
2017-12-19T17:33:21.878Z,16.30
2017-12-19T17:35:49.388Z,17.85
2017-12-19T17:38:17.223Z,16.37
2017-12-19T17:40:45.475Z,17.25
2017-12-19T17:43:12.987Z,17.83
2017-12-19T17:45:40.475Z,18.00
2017-12-19T17:48:07.986Z,17.80
2017-12-19T17:50:35.494Z,16.75
2017-12-19T17:53:03.000Z,17.05
2017-12-19T17:55:30.493Z,16.83
2017-12-19T17:57:58.004Z,15.80
2017-12-19T18:00:26.267Z,15.02
2017-12-19T18:02:53.772Z,17.70
2017-12-19T18:05:21.255Z,16.85
2017-12-19T18:07:48.747Z,16.15
2017-12-19T18:10:16.256Z,17.73
2017-12-19T18:12:43.818Z,17.98
2017-12-19T18:15:11.399Z,16.77
2017-12-19T18:17:38.947Z,16.70
2017-12-19T18:20:06.483Z,16.75
2017-12-19T18:22:33.971Z,16.83
2017-12-19T18:25:01.485Z,16.85
2017-12-19T18:27:29.779Z,18.50
2017-12-19T18:29:57.271Z,17.83
2017-12-19T18:32:24.784Z,17.52
2017-12-19T18:34:52.271Z,19.12
2017-12-19T18:37:19.780Z,18.45
2017-12-19T18:39:47.304Z,18.67
2017-12-19T18:42:14.813Z,18.95
2017-12-19T18:44:43.067Z,20.10
2017-12-19T18:47:10.627Z,19.45
2017-12-19T18:49:38.108Z,17.90
2017-12-19T18:52:06.388Z,18.42
2017-12-19T18:54:34.900Z,20.15
2017-12-19T18:57:02.392Z,19.45
2017-12-19T18:59:30.128Z,19.33
2017-12-19T19:01:57.660Z,18.48
2017-12-19T19:04:25.936Z,19.50
2017-12-19T19:06:54.214Z,17.12
2017-12-19T19:09:22.487Z,18.85
2017-12-19T19:11:50.748Z,20.80
2017-12-19T19:14:18.260Z,18.60
2017-12-19T19:16:45.753Z,18.85
2017-12-19T19:19:13.244Z,21.58
2017-12-19T19:21:41.532Z,18.55
2017-12-19T19:24:09.788Z,19.95
2017-12-19T19:26:37.365Z,19.83
2017-12-19T19:29:04.885Z,19.42
2017-12-19T19:31:32.414Z,19.00
2017-12-19T19:33:59.908Z,18.17
2017-12-19T19:36:27.420Z,19.80
2017-12-19T19:38:54.920Z,19.50
2017-12-19T19:41:22.434Z,19.90
2017-12-19T19:43:49.988Z,20.42
2017-12-19T19:46:18.236Z,18.98
2017-12-19T19:48:45.760Z,18.83
2017-12-19T19:51:13.351Z,17.60
2017-12-19T19:53:41.007Z,19.98
2017-12-19T19:56:09.292Z,21.08
2017-12-19T19:58:38.428Z,20.33
2017-12-19T20:01:05.924Z,20.35
2017-12-19T20:03:33.438Z,20.65
2017-12-19T20:06:01.923Z,20.62
2017-12-19T20:08:29.844Z,19.37
2017-12-19T20:10:57.370Z,21.33
2017-12-19T20:13:24.868Z,19.98
2017-12-19T20:15:53.348Z,19.50
2017-12-19T20:18:20.895Z,19.27
2017-12-19T20:20:48.579Z,18.83
2017-12-19T20:23:16.213Z,18.65
2017-12-19T20:25:43.725Z,17.42
2017-12-19T20:28:11.984Z,18.30
2017-12-19T20:30:39.493Z,19.42
2017-12-19T20:33:07.149Z,17.15
2017-12-19T20:35:34.797Z,18.62
2017-12-19T20:38:03.073Z,15.30
2017-12-19T20:40:31.343Z,15.75
2017-12-19T20:42:59.944Z,15.27
2017-12-19T20:45:27.628Z,14.90
2017-12-19T20:47:55.345Z,14.45
2017-12-19T20:50:22.860Z,14.05
2017-12-19T20:52:50.431Z,13.90
2017-12-19T20:55:19.964Z,12.85
2017-12-19T20:57:47.781Z,13.27
2017-12-19T21:00:15.307Z,13.15
2017-12-19T21:02:43.740Z,13.38
2017-12-19T21:05:13.168Z,13.05
2017-12-19T21:07:44.011Z,13.35
2017-12-19T21:10:11.736Z,14.95
2017-12-19T21:12:40.148Z,14.57
2017-12-19T21:15:07.708Z,16.50
2017-12-19T21:17:37.294Z,16.75
2017-12-19T21:20:05.641Z,17.02
2017-12-19T21:22:33.164Z,19.30
2017-12-19T21:25:01.476Z,16.80
2017-12-19T21:27:29.913Z,17.33
2017-12-19T21:29:59.245Z,18.67
2017-12-19T21:32:29.269Z,18.40
2017-12-19T21:34:56.805Z,16.92
2017-12-19T21:37:24.573Z,18.10
2017-12-19T21:39:52.068Z,16.73
2017-12-19T21:42:19.588Z,16.95
2017-12-19T21:44:47.076Z,16.23
2017-12-19T21:47:15.351Z,16.45
2017-12-19T21:49:43.607Z,15.77
2017-12-19T21:52:11.119Z,16.20
2017-12-19T21:54:38.609Z,15.57
2017-12-19T21:57:06.884Z,15.93
2017-12-19T21:59:34.373Z,14.20
2017-12-19T22:02:01.880Z,13.50
2017-12-19T22:04:30.132Z,12.85
2017-12-19T22:06:57.636Z,13.35
2017-12-19T22:09:25.127Z,12.10
2017-12-19T22:11:53.444Z,10.80
2017-12-19T22:14:20.936Z,11.50
2017-12-19T22:16:48.420Z,11.15
2017-12-19T22:19:16.701Z,11.55
2017-12-19T22:21:44.960Z,10.98
2017-12-19T22:24:12.472Z,11.23
2017-12-19T22:26:39.959Z,12.18
2017-12-19T22:29:07.464Z,11.05
2017-12-19T22:31:35.724Z,10.30
2017-12-19T22:34:03.232Z,10.80
2017-12-19T22:36:30.716Z,11.02
2017-12-19T22:38:58.219Z,12.27
2017-12-19T22:41:26.468Z,9.93
2017-12-19T22:43:53.955Z,10.45
2017-12-19T22:46:22.232Z,11.48
2017-12-19T22:48:50.492Z,12.00
2017-12-19T22:51:17.996Z,10.82
2017-12-19T22:53:45.484Z,10.68
2017-12-19T22:56:12.987Z,10.55
2017-12-19T22:58:41.240Z,10.85
2017-12-19T23:01:08.748Z,10.68
2017-12-19T23:03:36.271Z,9.70
2017-12-19T23:06:03.780Z,10.30
2017-12-19T23:08:31.265Z,10.05
2017-12-19T23:10:58.751Z,10.18
2017-12-19T23:13:27.023Z,10.30
2017-12-19T23:15:54.512Z,9.10
2017-12-19T23:18:22.016Z,8.57
2017-12-19T23:20:49.507Z,9.00
2017-12-19T23:23:17.819Z,7.78
2017-12-19T23:25:45.308Z,9.02
2017-12-19T23:28:12.808Z,8.43
2017-12-19T23:30:41.059Z,8.20
2017-12-19T23:33:08.628Z,9.15
2017-12-19T23:35:36.059Z,9.73
2017-12-19T23:38:03.587Z,8.50
2017-12-19T23:40:31.062Z,8.50
2017-12-19T23:42:58.587Z,8.10
2017-12-19T23:45:26.851Z,7.37
2017-12-19T23:47:55.095Z,8.77
2017-12-19T23:50:22.603Z,9.50
2017-12-19T23:52:50.852Z,7.80
2017-12-19T23:55:18.355Z,8.45
2017-12-19T23:57:45.852Z,8.32
